createdAt,value
2017-05-06T00:01:38.544Z,38.62
2017-05-06T00:04:05.336Z,34.10
2017-05-06T00:06:32.120Z,37.37
2017-05-06T00:08:59.324Z,35.03
2017-05-06T00:11:26.108Z,38.33
2017-05-06T00:13:52.895Z,40.98
2017-05-06T00:16:20.172Z,34.08
2017-05-06T00:18:46.948Z,35.27
2017-05-06T00:21:13.715Z,38.13
2017-05-06T00:23:40.763Z,41.40
2017-05-06T00:26:07.537Z,39.08
2017-05-06T00:28:34.322Z,42.68
2017-05-06T00:31:02.252Z,42.47
2017-05-06T00:33:29.044Z,41.12
2017-05-06T00:35:55.829Z,44.02
2017-05-06T00:38:23.177Z,40.73
2017-05-06T00:40:49.964Z,42.23
2017-05-06T00:43:16.735Z,45.63
2017-05-06T00:45:44.094Z,43.78
2017-05-06T00:48:10.864Z,41.03
2017-05-06T00:50:37.644Z,38.12
2017-05-06T00:53:04.726Z,44.15
2017-05-06T00:55:31.525Z,38.05
2017-05-06T00:57:58.308Z,38.52
2017-05-06T01:00:25.675Z,42.80
2017-05-06T01:02:52.486Z,39.12
2017-05-06T01:05:19.271Z,43.40
2017-05-06T01:07:46.495Z,47.00
2017-05-06T01:10:13.285Z,44.63
2017-05-06T01:12:40.075Z,39.30
2017-05-06T01:15:07.270Z,45.18
2017-05-06T01:17:34.061Z,35.52
2017-05-06T01:20:00.850Z,41.95
2017-05-06T01:22:28.181Z,43.97
2017-05-06T01:24:54.961Z,47.67
2017-05-06T01:27:21.751Z,48.62
2017-05-06T01:29:49.332Z,46.07
2017-05-06T01:32:16.120Z,46.43
2017-05-06T01:34:42.925Z,48.38
2017-05-06T01:37:10.427Z,44.70
2017-05-06T01:39:37.212Z,47.22
2017-05-06T01:42:04.001Z,41.45
2017-05-06T01:44:31.073Z,48.82
2017-05-06T01:46:57.848Z,44.55
2017-05-06T01:49:24.653Z,51.97
2017-05-06T01:51:52.003Z,46.98
2017-05-06T01:54:18.794Z,43.90
2017-05-06T01:56:45.586Z,48.97
2017-05-06T01:59:12.840Z,45.68
2017-05-06T02:01:39.615Z,51.18
2017-05-06T02:04:06.388Z,48.55
2017-05-06T02:06:33.589Z,47.23
2017-05-06T02:09:00.367Z,43.77
2017-05-06T02:11:27.151Z,46.07
2017-05-06T02:13:54.361Z,41.13
2017-05-06T02:16:21.137Z,41.48
2017-05-06T02:18:47.921Z,47.88
2017-05-06T02:21:15.327Z,41.55
2017-05-06T02:23:42.116Z,50.13
2017-05-06T02:26:08.888Z,49.28
2017-05-06T02:28:36.172Z,50.68
2017-05-06T02:31:02.964Z,49.75
2017-05-06T02:33:29.753Z,44.13
2017-05-06T02:35:56.805Z,42.30
2017-05-06T02:38:23.602Z,48.57
2017-05-06T02:40:50.384Z,50.50
2017-05-06T02:43:17.842Z,48.17
2017-05-06T02:45:44.692Z,51.08
2017-05-06T02:48:11.467Z,46.73
2017-05-06T02:50:38.674Z,55.08
2017-05-06T02:53:05.444Z,44.25
2017-05-06T02:55:32.220Z,48.68
2017-05-06T02:57:59.593Z,47.95
2017-05-06T03:00:26.371Z,46.25
2017-05-06T03:02:53.166Z,51.87
2017-05-06T03:05:20.327Z,51.87
2017-05-06T03:07:47.108Z,50.87
2017-05-06T03:10:13.888Z,49.28
2017-05-06T03:12:40.960Z,52.00
2017-05-06T03:15:07.736Z,47.75
2017-05-06T03:17:34.524Z,47.58
2017-05-06T03:20:01.619Z,47.77
2017-05-06T03:22:28.391Z,53.65
2017-05-06T03:24:55.171Z,51.90
2017-05-06T03:27:22.239Z,45.43
2017-05-06T03:29:49.270Z,48.50
2017-05-06T03:32:16.065Z,35.60
2017-05-06T03:34:43.124Z,41.45
2017-05-06T03:37:09.895Z,43.23
2017-05-06T03:39:36.689Z,44.93
2017-05-06T03:42:03.803Z,41.93
2017-05-06T03:44:30.583Z,49.17
2017-05-06T03:46:57.370Z,46.57
2017-05-06T03:49:24.471Z,50.90
2017-05-06T03:51:51.258Z,58.20
2017-05-06T03:54:18.044Z,52.53
2017-05-06T03:56:45.129Z,51.50
2017-05-06T03:59:11.912Z,45.75
2017-05-06T04:01:38.704Z,50.42
2017-05-06T04:04:05.958Z,46.87
2017-05-06T04:06:32.739Z,51.32
2017-05-06T04:08:59.523Z,54.92
2017-05-06T04:11:27.505Z,49.77
2017-05-06T04:13:54.262Z,55.87
2017-05-06T04:16:21.037Z,53.78
2017-05-06T04:18:48.089Z,53.00
2017-05-06T04:21:14.857Z,51.90
2017-05-06T04:23:41.624Z,53.92
2017-05-06T04:26:08.690Z,51.93
2017-05-06T04:28:35.538Z,46.88
2017-05-06T04:31:02.304Z,50.68
2017-05-06T04:33:29.365Z,52.70
2017-05-06T04:35:56.133Z,43.67
2017-05-06T04:38:22.898Z,46.37
2017-05-06T04:40:49.942Z,39.62
2017-05-06T04:43:16.692Z,40.07
2017-05-06T04:45:43.441Z,34.67
2017-05-06T04:48:10.485Z,33.20
2017-05-06T04:50:37.241Z,35.20
2017-05-06T04:53:03.997Z,28.47
2017-05-06T04:55:31.056Z,33.32
2017-05-06T04:57:57.813Z,28.00
2017-05-06T05:00:24.573Z,28.53
2017-05-06T05:02:51.612Z,26.87
2017-05-06T05:05:18.386Z,25.22
2017-05-06T05:07:45.141Z,27.18
2017-05-06T05:10:12.488Z,29.48
2017-05-06T05:12:40.072Z,25.70
2017-05-06T05:15:07.069Z,25.13
2017-05-06T05:17:34.254Z,26.65
2017-05-06T05:20:01.268Z,28.20
2017-05-06T05:22:28.029Z,26.42
2017-05-06T05:24:55.086Z,28.95
2017-05-06T05:27:21.845Z,25.97
2017-05-06T05:29:48.588Z,26.15
2017-05-06T05:32:15.652Z,23.05
2017-05-06T05:34:42.417Z,25.40
2017-05-06T05:37:09.172Z,25.42
2017-05-06T05:39:36.337Z,23.85
2017-05-06T05:42:03.083Z,22.63
2017-05-06T05:44:29.844Z,23.50
2017-05-06T05:46:57.072Z,23.73
2017-05-06T05:49:23.825Z,22.37
2017-05-06T05:51:50.584Z,23.85
2017-05-06T05:54:17.659Z,24.30
2017-05-06T05:56:44.696Z,24.95
2017-05-06T05:59:11.930Z,23.17
2017-05-06T06:01:39.411Z,23.05
2017-05-06T06:04:06.165Z,23.82
2017-05-06T06:06:32.920Z,25.40
2017-05-06T06:09:00.057Z,22.50
2017-05-06T06:11:26.822Z,25.48
2017-05-06T06:13:53.584Z,25.20
2017-05-06T06:16:21.150Z,23.97
2017-05-06T06:18:47.902Z,25.42
2017-05-06T06:21:14.655Z,22.40
2017-05-06T06:23:41.739Z,25.22
2017-05-06T06:26:08.493Z,22.95
2017-05-06T06:28:35.249Z,26.40
2017-05-06T06:31:02.584Z,22.78
2017-05-06T06:33:29.336Z,21.98
2017-05-06T06:35:56.094Z,23.60
2017-05-06T06:38:24.047Z,22.60
2017-05-06T06:40:51.176Z,23.18
2017-05-06T06:43:17.940Z,23.03
2017-05-06T06:45:44.973Z,22.60
2017-05-06T06:48:11.739Z,22.67
2017-05-06T06:50:38.524Z,20.65
2017-05-06T06:53:06.460Z,19.13
2017-05-06T06:55:33.432Z,20.45
2017-05-06T06:58:00.180Z,23.93
2017-05-06T07:00:28.078Z,20.18
2017-05-06T07:02:54.840Z,22.63
2017-05-06T07:05:22.811Z,22.15
2017-05-06T07:07:50.358Z,20.38
2017-05-06T07:10:17.125Z,23.55
2017-05-06T07:12:44.234Z,21.13
2017-05-06T07:15:11.623Z,21.33
2017-05-06T07:17:38.730Z,21.97
2017-05-06T07:20:05.488Z,24.60
2017-05-06T07:22:32.966Z,20.13
2017-05-06T07:25:00.113Z,20.65
2017-05-06T07:27:27.756Z,22.40
2017-05-06T07:29:54.810Z,19.18
2017-05-06T07:32:21.792Z,20.82
2017-05-06T07:34:48.549Z,26.55
2017-05-06T07:37:18.805Z,23.27
2017-05-06T07:39:45.574Z,23.38
2017-05-06T07:42:12.323Z,19.62
2017-05-06T07:44:39.381Z,21.98
2017-05-06T07:47:06.153Z,22.93
2017-05-06T07:49:32.904Z,23.08
2017-05-06T07:52:00.076Z,19.37
2017-05-06T07:54:26.825Z,22.92
2017-05-06T07:56:53.583Z,20.17
2017-05-06T07:59:20.620Z,21.88
2017-05-06T08:01:47.380Z,21.62
2017-05-06T08:04:14.142Z,21.72
2017-05-06T08:06:41.188Z,22.87
2017-05-06T08:09:07.948Z,20.68
2017-05-06T08:11:35.575Z,21.83
2017-05-06T08:14:04.091Z,22.30
2017-05-06T08:16:30.863Z,21.15
2017-05-06T08:18:58.463Z,22.73
2017-05-06T08:21:25.826Z,18.50
2017-05-06T08:23:52.593Z,19.78
2017-05-06T08:26:20.356Z,22.83
2017-05-06T08:28:47.917Z,19.40
2017-05-06T08:31:14.679Z,21.10
2017-05-06T08:33:41.440Z,20.53
2017-05-06T08:36:08.606Z,19.05
2017-05-06T08:38:35.589Z,20.73
2017-05-06T08:41:02.341Z,22.38
2017-05-06T08:43:33.274Z,20.60
2017-05-06T08:46:01.085Z,20.07
2017-05-06T08:48:27.849Z,21.07
2017-05-06T08:50:55.412Z,19.77
2017-05-06T08:53:24.678Z,19.12
2017-05-06T08:55:51.807Z,18.82
2017-05-06T08:58:19.764Z,17.20
2017-05-06T09:00:49.294Z,20.43
2017-05-06T09:03:17.849Z,21.40
2017-05-06T09:05:44.917Z,20.07
2017-05-06T09:08:12.118Z,20.78
2017-05-06T09:10:38.866Z,20.48
2017-05-06T09:13:06.225Z,19.05
2017-05-06T09:15:33.308Z,21.30
2017-05-06T09:18:00.077Z,22.52
2017-05-06T09:20:27.329Z,19.25
2017-05-06T09:22:54.121Z,21.22
2017-05-06T09:25:20.867Z,18.92
2017-05-06T09:27:48.166Z,21.57
2017-05-06T09:30:14.925Z,19.65
2017-05-06T09:32:41.680Z,20.52
2017-05-06T09:35:09.763Z,19.85
2017-05-06T09:37:36.869Z,21.32
2017-05-06T09:40:03.630Z,18.68
2017-05-06T09:42:30.751Z,19.13
2017-05-06T09:44:57.515Z,21.78
2017-05-06T09:47:24.286Z,19.13
2017-05-06T09:49:51.574Z,21.30
2017-05-06T09:52:18.328Z,18.78
2017-05-06T09:54:45.080Z,18.58
2017-05-06T09:57:12.125Z,18.48
2017-05-06T09:59:38.894Z,19.38
2017-05-06T10:02:05.657Z,18.57
2017-05-06T10:04:33.339Z,18.55
2017-05-06T10:07:00.097Z,19.80
2017-05-06T10:09:26.851Z,18.28
2017-05-06T10:11:54.168Z,19.27
2017-05-06T10:14:20.933Z,20.15
2017-05-06T10:16:48.190Z,21.17
2017-05-06T10:19:15.525Z,20.17
2017-05-06T10:21:42.285Z,19.40
2017-05-06T10:24:09.049Z,18.23
2017-05-06T10:26:36.325Z,19.43
2017-05-06T10:29:03.085Z,19.95
2017-05-06T10:31:29.844Z,17.20
2017-05-06T10:33:56.878Z,20.13
2017-05-06T10:36:23.860Z,18.03
2017-05-06T10:38:51.237Z,19.43
2017-05-06T10:41:19.780Z,17.87
2017-05-06T10:43:46.545Z,18.82
2017-05-06T10:46:13.319Z,18.22
2017-05-06T10:48:40.703Z,19.33
2017-05-06T10:51:07.465Z,19.05
2017-05-06T10:53:34.220Z,19.42
2017-05-06T10:56:01.261Z,16.92
2017-05-06T10:58:28.022Z,16.40
2017-05-06T11:00:54.782Z,15.38
2017-05-06T11:03:22.044Z,18.17
2017-05-06T11:05:48.813Z,19.48
2017-05-06T11:08:15.585Z,16.05
2017-05-06T11:10:44.526Z,16.90
2017-05-06T11:13:11.804Z,17.27
2017-05-06T11:15:38.565Z,18.07
2017-05-06T11:18:06.298Z,17.82
2017-05-06T11:20:33.061Z,16.05
2017-05-06T11:22:59.823Z,17.47
2017-05-06T11:25:26.907Z,16.70
2017-05-06T11:27:53.686Z,17.36
2017-05-06T11:30:20.445Z,16.35
2017-05-06T11:32:47.524Z,16.63
2017-05-06T11:35:14.288Z,14.47
2017-05-06T11:37:41.050Z,16.88
2017-05-06T11:40:09.099Z,14.98
2017-05-06T11:42:35.878Z,15.08
2017-05-06T11:45:02.697Z,18.25
2017-05-06T11:47:30.019Z,15.05
2017-05-06T11:49:56.786Z,14.42
2017-05-06T11:52:23.549Z,15.03
2017-05-06T11:54:51.189Z,14.72
2017-05-06T11:57:18.198Z,15.93
2017-05-06T11:59:44.966Z,15.17
2017-05-06T12:02:14.466Z,16.68
2017-05-06T12:04:41.247Z,14.38
2017-05-06T12:07:08.014Z,15.22
2017-05-06T12:09:35.069Z,15.75
2017-05-06T12:12:01.845Z,13.45
2017-05-06T12:14:28.613Z,14.98
2017-05-06T12:16:55.665Z,14.00
2017-05-06T12:19:22.443Z,13.53
2017-05-06T12:21:49.210Z,13.93
2017-05-06T12:24:16.335Z,15.50
2017-05-06T12:26:43.109Z,15.08
2017-05-06T12:29:09.878Z,13.72
2017-05-06T12:31:37.686Z,15.77
2017-05-06T12:34:04.452Z,13.45
2017-05-06T12:36:32.070Z,13.40
2017-05-06T12:38:59.538Z,10.95
2017-05-06T12:41:26.300Z,13.22
2017-05-06T12:43:53.141Z,13.70
2017-05-06T12:46:20.330Z,10.78
2017-05-06T12:48:47.312Z,14.48
2017-05-06T12:51:14.068Z,12.98
2017-05-06T12:53:41.189Z,11.86
2017-05-06T12:56:07.948Z,12.90
2017-05-06T12:58:34.699Z,11.60
2017-05-06T13:01:02.016Z,12.23
2017-05-06T13:03:28.775Z,13.03
2017-05-06T13:05:55.541Z,12.42
2017-05-06T13:08:23.725Z,14.40
2017-05-06T13:10:50.481Z,13.24
2017-05-06T13:13:17.238Z,14.50
2017-05-06T13:15:44.322Z,12.88
2017-05-06T13:18:11.079Z,14.17
2017-05-06T13:20:37.844Z,12.82
2017-05-06T13:23:04.881Z,12.53
2017-05-06T13:25:31.657Z,12.18
2017-05-06T13:28:01.394Z,12.57
2017-05-06T13:30:28.437Z,11.85
2017-05-06T13:32:55.198Z,12.25
2017-05-06T13:35:21.976Z,13.65
2017-05-06T13:37:49.543Z,12.63
2017-05-06T13:40:16.301Z,12.12
2017-05-06T13:42:43.072Z,12.32
2017-05-06T13:45:10.249Z,11.74
2017-05-06T13:47:37.043Z,12.33
2017-05-06T13:50:03.827Z,13.20
2017-05-06T13:52:31.458Z,13.67
2017-05-06T13:54:58.706Z,12.96
2017-05-06T13:57:25.931Z,11.24
2017-05-06T13:59:53.209Z,13.18
2017-05-06T14:02:19.969Z,14.08
2017-05-06T14:04:46.724Z,13.08
2017-05-06T14:07:13.905Z,11.42
2017-05-06T14:09:40.682Z,14.35
2017-05-06T14:12:07.454Z,13.33
2017-05-06T14:14:34.951Z,14.02
2017-05-06T14:17:01.722Z,13.93
2017-05-06T14:19:28.499Z,13.15
2017-05-06T14:21:55.539Z,13.27
2017-05-06T14:24:22.305Z,11.12
2017-05-06T14:26:49.073Z,11.52
2017-05-06T14:29:16.146Z,11.52
2017-05-06T14:31:43.237Z,12.52
2017-05-06T14:34:10.001Z,9.67
2017-05-06T14:36:37.305Z,13.23
2017-05-06T14:39:04.084Z,11.87
2017-05-06T14:41:30.842Z,11.82
2017-05-06T14:43:57.624Z,12.68
2017-05-06T14:46:24.389Z,12.00
2017-05-06T14:48:51.183Z,12.30
2017-05-06T14:51:17.950Z,11.10
2017-05-06T14:53:45.021Z,11.87
2017-05-06T14:56:11.781Z,11.25
2017-05-06T14:58:38.545Z,10.68
2017-05-06T15:01:05.592Z,11.90
2017-05-06T15:03:32.353Z,11.94
2017-05-06T15:05:59.109Z,10.52
2017-05-06T15:08:26.173Z,11.42
2017-05-06T15:10:52.934Z,10.46
2017-05-06T15:13:19.694Z,9.87
2017-05-06T15:15:46.749Z,10.35
2017-05-06T15:18:13.505Z,9.77
2017-05-06T15:20:40.260Z,10.43
2017-05-06T15:23:07.530Z,9.87
2017-05-06T15:25:34.293Z,10.87
2017-05-06T15:28:01.070Z,11.17
2017-05-06T15:30:28.147Z,10.80
2017-05-06T15:32:54.904Z,9.55
2017-05-06T15:35:21.664Z,10.00
2017-05-06T15:37:49.005Z,10.60
2017-05-06T15:40:15.764Z,10.40
2017-05-06T15:42:43.135Z,9.67
2017-05-06T15:45:10.340Z,10.53
2017-05-06T15:47:37.104Z,10.73
2017-05-06T15:50:03.869Z,10.93
2017-05-06T15:52:31.177Z,9.37
2017-05-06T15:54:57.936Z,11.03
2017-05-06T15:57:24.696Z,9.70
2017-05-06T15:59:51.878Z,12.18
2017-05-06T16:02:18.643Z,11.47
2017-05-06T16:04:45.404Z,12.78
2017-05-06T16:07:12.500Z,12.40
2017-05-06T16:09:39.265Z,12.63
2017-05-06T16:12:06.041Z,14.52
2017-05-06T16:14:33.165Z,11.97
2017-05-06T16:16:59.925Z,13.05
2017-05-06T16:19:29.726Z,13.67
2017-05-06T16:21:56.797Z,13.68
2017-05-06T16:24:23.552Z,13.50
2017-05-06T16:26:50.311Z,12.32
2017-05-06T16:29:17.368Z,12.87
2017-05-06T16:31:49.879Z,15.20
2017-05-06T16:34:16.640Z,13.02
2017-05-06T16:36:43.700Z,14.62
2017-05-06T16:39:10.462Z,13.23
2017-05-06T16:41:37.228Z,13.43
2017-05-06T16:44:04.292Z,14.80
2017-05-06T16:46:31.074Z,14.28
2017-05-06T16:48:57.824Z,14.57
2017-05-06T16:51:25.005Z,13.58
2017-05-06T16:53:51.769Z,15.10
2017-05-06T16:56:18.525Z,15.13
2017-05-06T16:58:45.837Z,13.87
2017-05-06T17:01:12.600Z,15.75
2017-05-06T17:03:39.366Z,15.63
2017-05-06T17:06:07.598Z,15.43
2017-05-06T17:08:34.387Z,17.37
2017-05-06T17:11:01.135Z,16.63
2017-05-06T17:13:28.828Z,17.30
2017-05-06T17:15:55.579Z,17.03
2017-05-06T17:18:22.353Z,16.63
2017-05-06T17:20:49.456Z,16.77
2017-05-06T17:23:16.214Z,15.45
2017-05-06T17:25:42.983Z,16.03
2017-05-06T17:28:10.188Z,14.58
2017-05-06T17:30:36.953Z,15.10
2017-05-06T17:33:03.708Z,14.52
2017-05-06T17:35:31.072Z,15.13
2017-05-06T17:37:57.842Z,15.60
2017-05-06T17:40:24.610Z,14.87
2017-05-06T17:42:51.645Z,14.17
2017-05-06T17:45:18.400Z,14.83
2017-05-06T17:47:45.169Z,14.05
2017-05-06T17:50:12.241Z,15.57
2017-05-06T17:52:39.003Z,15.73
2017-05-06T17:55:05.760Z,17.43
2017-05-06T17:57:32.833Z,13.40
2017-05-06T17:59:59.592Z,15.10
2017-05-06T18:02:26.350Z,14.50
2017-05-06T18:04:53.845Z,16.02
2017-05-06T18:07:20.613Z,14.75
2017-05-06T18:09:47.384Z,14.03
2017-05-06T18:12:14.612Z,15.30
2017-05-06T18:14:41.378Z,14.52
2017-05-06T18:17:08.177Z,14.57
2017-05-06T18:19:35.204Z,15.63
2017-05-06T18:22:01.963Z,14.85
2017-05-06T18:24:28.734Z,13.82
2017-05-06T18:26:55.821Z,14.30
2017-05-06T18:29:22.576Z,14.57
2017-05-06T18:31:49.333Z,15.37
2017-05-06T18:34:17.728Z,16.78
2017-05-06T18:36:44.500Z,14.92
2017-05-06T18:39:11.271Z,15.77
2017-05-06T18:41:38.523Z,15.78
2017-05-06T18:44:05.317Z,15.45
2017-05-06T18:46:32.082Z,16.25
2017-05-06T18:48:59.360Z,16.42
2017-05-06T18:51:26.113Z,16.52
2017-05-06T18:53:52.894Z,15.45
2017-05-06T18:56:20.169Z,15.25
2017-05-06T18:58:46.921Z,18.80
2017-05-06T19:01:13.682Z,16.52
2017-05-06T19:03:42.978Z,16.95
2017-05-06T19:06:09.754Z,20.08
2017-05-06T19:08:36.509Z,17.37
2017-05-06T19:11:03.893Z,18.45
2017-05-06T19:13:30.640Z,17.90
2017-05-06T19:15:57.397Z,16.45
2017-05-06T19:18:24.692Z,18.53
2017-05-06T19:20:51.444Z,17.47
2017-05-06T19:23:18.206Z,17.48
2017-05-06T19:25:45.392Z,16.68
2017-05-06T19:28:12.169Z,16.65
2017-05-06T19:30:38.920Z,16.97
2017-05-06T19:33:06.078Z,16.47
2017-05-06T19:35:32.851Z,18.57
2017-05-06T19:37:59.613Z,20.43
2017-05-06T19:40:26.713Z,17.57
2017-05-06T19:42:53.464Z,19.70
2017-05-06T19:45:20.222Z,18.47
2017-05-06T19:47:47.532Z,19.12
2017-05-06T19:50:14.291Z,19.88
2017-05-06T19:52:41.044Z,17.97
2017-05-06T19:55:09.324Z,18.90
2017-05-06T19:57:36.090Z,19.33
2017-05-06T20:00:02.831Z,20.47
2017-05-06T20:02:30.666Z,22.38
2017-05-06T20:04:57.745Z,18.73
2017-05-06T20:07:25.252Z,21.22
2017-05-06T20:09:52.610Z,20.83
2017-05-06T20:12:19.363Z,20.72
2017-05-06T20:14:46.131Z,20.50
2017-05-06T20:17:13.739Z,21.70
2017-05-06T20:19:41.033Z,20.85
2017-05-06T20:22:07.805Z,19.75
2017-05-06T20:24:35.722Z,19.68
2017-05-06T20:27:03.276Z,20.23
2017-05-06T20:29:30.063Z,22.03
2017-05-06T20:31:57.197Z,22.95
2017-05-06T20:34:23.951Z,21.93
2017-05-06T20:36:50.713Z,23.13
2017-05-06T20:39:18.535Z,22.12
2017-05-06T20:41:45.286Z,22.53
2017-05-06T20:44:12.041Z,19.13
2017-05-06T20:46:39.085Z,21.33
2017-05-06T20:49:06.070Z,21.58
2017-05-06T20:51:32.856Z,21.25
2017-05-06T20:54:00.329Z,21.90
2017-05-06T20:56:27.096Z,21.30
2017-05-06T20:58:53.847Z,23.12
2017-05-06T21:01:21.519Z,21.88
2017-05-06T21:03:48.269Z,23.82
2017-05-06T21:06:15.037Z,22.75
2017-05-06T21:08:43.124Z,23.42
2017-05-06T21:11:11.241Z,22.98
2017-05-06T21:13:38.258Z,24.23
2017-05-06T21:16:05.592Z,23.57
2017-05-06T21:18:32.350Z,23.47
2017-05-06T21:20:59.125Z,22.72
2017-05-06T21:23:26.547Z,19.75
2017-05-06T21:25:53.900Z,23.73
2017-05-06T21:28:21.581Z,23.48
2017-05-06T21:33:20.336Z,22.85
2017-05-06T21:35:49.313Z,20.77
2017-05-06T21:38:22.695Z,25.00
2017-05-06T21:40:49.463Z,24.43
2017-05-06T21:43:16.752Z,24.03
2017-05-06T21:45:43.514Z,23.07
2017-05-06T21:48:10.277Z,25.27
2017-05-06T21:50:42.288Z,26.80
2017-05-06T21:53:12.425Z,26.18
2017-05-06T21:55:39.202Z,25.07
2017-05-06T21:58:06.720Z,24.55
2017-05-06T22:00:36.080Z,24.80
2017-05-06T22:03:03.469Z,24.67
2017-05-06T22:05:41.153Z,26.92
2017-05-06T22:08:07.931Z,29.20
2017-05-06T22:10:34.701Z,29.27
2017-05-06T22:13:01.740Z,32.18
2017-05-06T22:15:28.967Z,28.92
2017-05-06T22:17:55.762Z,32.47
2017-05-06T22:20:23.437Z,32.35
2017-05-06T22:22:53.639Z,32.88
2017-05-06T22:25:20.401Z,33.95
2017-05-06T22:27:48.569Z,31.00
2017-05-06T22:30:15.333Z,31.43
2017-05-06T22:32:42.909Z,32.28
2017-05-06T22:35:10.058Z,35.27
2017-05-06T22:37:36.815Z,35.23
2017-05-06T22:40:03.565Z,35.53
2017-05-06T22:42:30.612Z,35.03
2017-05-06T22:44:57.637Z,32.73
2017-05-06T22:47:24.392Z,31.37
2017-05-06T22:49:51.583Z,32.28
2017-05-06T22:52:19.505Z,32.52
2017-05-06T22:54:46.262Z,33.67
2017-05-06T22:57:14.420Z,32.68
2017-05-06T22:59:42.293Z,30.27
2017-05-06T23:02:09.713Z,31.45
2017-05-06T23:04:37.297Z,31.15
2017-05-06T23:07:04.211Z,32.00
2017-05-06T23:09:31.452Z,33.55
2017-05-06T23:11:58.692Z,37.38
2017-05-06T23:14:25.442Z,32.12
2017-05-06T23:16:52.208Z,36.25
2017-05-06T23:19:19.513Z,35.62
2017-05-06T23:21:46.685Z,35.55
2017-05-06T23:24:13.449Z,36.97
2017-05-06T23:26:40.504Z,35.52
2017-05-06T23:29:07.271Z,34.88
2017-05-06T23:31:34.030Z,34.45
2017-05-06T23:34:01.185Z,35.17
2017-05-06T23:36:27.950Z,36.10
2017-05-06T23:38:54.711Z,36.93
2017-05-06T23:41:22.011Z,37.95
2017-05-06T23:43:48.789Z,41.13
2017-05-06T23:46:15.550Z,39.07
2017-05-06T23:48:42.845Z,42.35
2017-05-06T23:51:09.641Z,40.45
2017-05-06T23:53:36.403Z,40.57
2017-05-06T23:56:03.589Z,39.13
2017-05-06T23:58:30.358Z,36.05
